createdAt,value
2018-11-12T00:00:42.926Z,1008.65
2018-11-12T00:01:42.908Z,1008.70
2018-11-12T00:02:43.046Z,1008.67
2018-11-12T00:03:42.975Z,1008.68
2018-11-12T00:04:43.069Z,1008.63
2018-11-12T00:06:43.426Z,1008.58
2018-11-12T00:07:43.164Z,1008.58
2018-11-12T00:08:43.199Z,1008.52
2018-11-12T00:09:43.184Z,1008.53
2018-11-12T00:10:43.207Z,1008.54
2018-11-12T00:11:43.250Z,1008.57
2018-11-12T00:12:43.329Z,1008.57
2018-11-12T00:13:43.607Z,1008.59
2018-11-12T00:14:43.337Z,1008.60
2018-11-12T00:15:43.379Z,1008.62
2018-11-12T00:16:43.408Z,1008.57
2018-11-12T00:17:43.488Z,1008.60
2018-11-12T00:18:43.520Z,1008.61
2018-11-12T00:19:43.558Z,1008.62
2018-11-12T00:20:43.840Z,1008.63
2018-11-12T00:21:43.609Z,1008.65
2018-11-12T00:22:43.655Z,1008.64
2018-11-12T00:23:43.687Z,1008.63
2018-11-12T00:24:43.721Z,1008.69
2018-11-12T00:25:43.701Z,1008.71
2018-11-12T00:26:43.737Z,1008.77
2018-11-12T00:27:44.069Z,1008.78
2018-11-12T00:28:43.864Z,1008.82
2018-11-12T00:29:43.883Z,1008.85
2018-11-12T00:30:43.869Z,1008.86
2018-11-12T00:31:43.900Z,1008.92
2018-11-12T00:32:43.986Z,1008.89
2018-11-12T00:34:44.000Z,1008.86
2018-11-12T00:35:44.340Z,1008.83
2018-11-12T00:36:44.120Z,1008.86
2018-11-12T00:37:44.104Z,1008.87
2018-11-12T00:38:44.184Z,1008.89
2018-11-12T00:39:44.169Z,1008.86
2018-11-12T00:40:44.251Z,1008.85
2018-11-12T00:41:44.242Z,1008.79
2018-11-12T00:43:44.650Z,1008.77
2018-11-12T00:44:44.382Z,1008.82
2018-11-12T00:45:44.417Z,1008.80
2018-11-12T00:46:44.450Z,1008.77
2018-11-12T00:47:44.437Z,1008.73
2018-11-12T00:48:44.516Z,1008.67
2018-11-12T00:49:44.505Z,1008.72
2018-11-12T00:50:44.832Z,1008.66
2018-11-12T00:51:44.617Z,1008.71
2018-11-12T00:52:44.648Z,1008.67
2018-11-12T00:53:44.630Z,1008.66
2018-11-12T00:54:44.665Z,1008.69
2018-11-12T00:56:44.730Z,1008.79
2018-11-12T00:57:45.116Z,1008.84
2018-11-12T00:58:44.801Z,1008.88
2018-11-12T00:59:44.884Z,1008.91
2018-11-12T01:00:44.915Z,1008.95
2018-11-12T01:01:44.896Z,1008.99
2018-11-12T01:02:44.982Z,1009.00
2018-11-12T01:04:45.045Z,1009.07
2018-11-12T01:05:45.329Z,1009.08
2018-11-12T01:06:45.114Z,1009.14
2018-11-12T01:07:45.097Z,1009.23
2018-11-12T01:08:45.179Z,1009.21
2018-11-12T01:09:45.162Z,1009.29
2018-11-12T01:10:45.205Z,1009.27
2018-11-12T01:11:45.277Z,1009.21
2018-11-12T01:12:45.562Z,1009.15
2018-11-12T01:13:45.350Z,1009.09
2018-11-12T01:14:45.335Z,1009.11
2018-11-12T01:15:45.413Z,1009.12
2018-11-12T01:16:45.444Z,1009.15
2018-11-12T01:17:45.427Z,1009.18
2018-11-12T01:18:45.512Z,1009.18
2018-11-12T01:19:45.803Z,1009.15
2018-11-12T01:20:45.577Z,1009.14
2018-11-12T01:21:45.609Z,1009.10
2018-11-12T01:22:45.749Z,1009.08
2018-11-12T01:23:45.724Z,1009.06
2018-11-12T01:24:45.707Z,1009.06
2018-11-12T01:25:45.744Z,1009.05
2018-11-12T01:26:46.030Z,1009.02
2018-11-12T01:27:45.758Z,1009.08
2018-11-12T01:28:45.840Z,1009.08
2018-11-12T01:29:45.824Z,1009.10
2018-11-12T01:30:45.910Z,1009.12
2018-11-12T01:31:45.944Z,1009.21
2018-11-12T01:32:45.923Z,1009.20
2018-11-12T01:33:46.318Z,1009.21
2018-11-12T01:34:46.693Z,1009.23
2018-11-12T01:35:46.105Z,1009.19
2018-11-12T01:36:46.158Z,1009.21
2018-11-12T01:37:46.142Z,1009.26
2018-11-12T01:38:46.138Z,1009.24
2018-11-12T01:39:46.210Z,1009.24
2018-11-12T01:40:46.490Z,1009.21
2018-11-12T01:41:46.271Z,1009.21
2018-11-12T01:42:46.305Z,1009.13
2018-11-12T01:44:46.372Z,1009.02
2018-11-12T01:45:46.407Z,1009.01
2018-11-12T01:46:46.442Z,1009.01
2018-11-12T01:47:46.827Z,1009.03
2018-11-12T01:48:46.504Z,1009.03
2018-11-12T01:49:46.587Z,1008.95
2018-11-12T01:50:46.544Z,1008.95
2018-11-12T01:51:46.623Z,1008.93
2018-11-12T01:52:46.590Z,1008.90
2018-11-12T01:53:46.619Z,1008.83
2018-11-12T01:54:46.951Z,1008.78
2018-11-12T01:55:46.742Z,1008.72
2018-11-12T01:56:46.772Z,1008.76
2018-11-12T01:57:46.751Z,1008.75
2018-11-12T01:58:46.792Z,1008.78
2018-11-12T01:59:46.870Z,1008.75
2018-11-12T02:00:46.850Z,1008.75
2018-11-12T02:01:47.260Z,1008.81
2018-11-12T02:02:46.918Z,1008.79
2018-11-12T02:03:46.949Z,1008.77
2018-11-12T02:04:47.051Z,1008.80
2018-11-12T02:05:47.067Z,1008.84
2018-11-12T02:06:47.050Z,1008.82
2018-11-12T02:07:47.092Z,1008.84
2018-11-12T02:08:47.651Z,1008.90
2018-11-12T02:09:47.205Z,1008.94
2018-11-12T02:10:47.234Z,1008.99
2018-11-12T02:11:47.213Z,1008.93
2018-11-12T02:12:47.297Z,1008.96
2018-11-12T02:13:47.331Z,1008.91
2018-11-12T02:14:47.614Z,1008.92
2018-11-12T02:15:47.348Z,1008.88
2018-11-12T02:16:47.431Z,1008.80
2018-11-12T02:17:47.471Z,1008.75
2018-11-12T02:18:47.444Z,1008.74
2018-11-12T02:19:47.529Z,1008.72
2018-11-12T02:21:47.849Z,1008.77
2018-11-12T02:22:47.579Z,1008.77
2018-11-12T02:23:47.612Z,1008.88
2018-11-12T02:24:47.694Z,1008.95
2018-11-12T02:25:47.733Z,1009.04
2018-11-12T02:26:47.711Z,1009.11
2018-11-12T02:27:48.043Z,1009.12
2018-11-12T02:28:47.783Z,1009.12
2018-11-12T02:29:47.811Z,1009.08
2018-11-12T02:30:47.894Z,1008.99
2018-11-12T02:31:47.874Z,1008.94
2018-11-12T02:32:47.960Z,1008.89
2018-11-12T02:33:48.243Z,1008.90
2018-11-12T02:34:47.974Z,1008.88
2018-11-12T02:35:48.062Z,1008.87
2018-11-12T02:36:48.044Z,1008.83
2018-11-12T02:37:48.072Z,1008.84
2018-11-12T02:38:48.106Z,1008.81
2018-11-12T02:39:48.191Z,1008.83
2018-11-12T02:40:48.477Z,1008.81
2018-11-12T02:41:48.256Z,1008.82
2018-11-12T02:42:48.240Z,1008.85
2018-11-12T02:43:48.275Z,1008.83
2018-11-12T02:44:48.304Z,1008.80
2018-11-12T02:45:48.389Z,1008.82
2018-11-12T02:46:48.423Z,1008.84
2018-11-12T02:48:48.748Z,1008.90
2018-11-12T02:49:48.520Z,1008.89
2018-11-12T02:50:48.505Z,1008.93
2018-11-12T02:51:48.590Z,1008.92
2018-11-12T02:52:48.575Z,1008.94
2018-11-12T02:53:48.653Z,1008.92
2018-11-12T02:54:48.639Z,1008.88
2018-11-12T02:55:48.969Z,1008.88
2018-11-12T02:56:48.759Z,1008.92
2018-11-12T02:57:48.788Z,1008.94
2018-11-12T02:58:48.773Z,1008.89
2018-11-12T02:59:48.856Z,1008.90
2018-11-12T03:00:48.834Z,1008.90
2018-11-12T03:01:48.875Z,1008.89
2018-11-12T03:03:49.338Z,1008.82
2018-11-12T03:04:49.018Z,1008.81
2018-11-12T03:05:49.050Z,1008.83
2018-11-12T03:06:49.033Z,1008.78
2018-11-12T03:07:49.115Z,1008.78
2018-11-12T03:08:49.151Z,1008.77
2018-11-12T03:09:49.434Z,1008.72
2018-11-12T03:10:49.173Z,1008.72
2018-11-12T03:11:49.197Z,1008.70
2018-11-12T03:12:49.281Z,1008.72
2018-11-12T03:13:49.317Z,1008.71
2018-11-12T03:14:49.297Z,1008.71
2018-11-12T03:15:49.379Z,1008.80
2018-11-12T03:16:49.666Z,1008.84
2018-11-12T03:17:49.445Z,1008.90
2018-11-12T03:19:49.513Z,1008.94
2018-11-12T03:20:49.558Z,1008.92
2018-11-12T03:21:49.581Z,1008.92
2018-11-12T03:22:49.562Z,1008.93
2018-11-12T03:24:49.976Z,1008.87
2018-11-12T03:25:49.712Z,1008.80
2018-11-12T03:26:49.697Z,1008.81
2018-11-12T03:27:49.846Z,1008.81
2018-11-12T03:28:49.760Z,1008.74
2018-11-12T03:29:49.941Z,1008.75
2018-11-12T03:30:49.878Z,1008.73
2018-11-12T03:31:50.214Z,1008.74
2018-11-12T03:32:49.954Z,1008.72
2018-11-12T03:33:50.042Z,1008.69
2018-11-12T03:34:49.965Z,1008.65
2018-11-12T03:35:50.041Z,1008.60
2018-11-12T03:36:50.094Z,1008.52
2018-11-12T03:37:50.059Z,1008.53
2018-11-12T03:38:50.393Z,1008.49
2018-11-12T03:39:50.276Z,1008.50
2018-11-12T03:40:50.158Z,1008.48
2018-11-12T03:41:50.198Z,1008.50
2018-11-12T03:42:50.221Z,1008.51
2018-11-12T03:43:50.309Z,1008.57
2018-11-12T03:44:50.341Z,1008.61
2018-11-12T03:45:50.620Z,1008.64
2018-11-12T03:46:50.355Z,1008.70
2018-11-12T03:47:50.386Z,1008.72
2018-11-12T03:48:50.474Z,1008.70
2018-11-12T03:49:50.502Z,1008.73
2018-11-12T03:50:50.491Z,1008.75
2018-11-12T03:52:50.606Z,1008.61
2018-11-12T03:53:50.889Z,1008.62
2018-11-12T03:54:50.617Z,1008.66
2018-11-12T03:55:50.649Z,1008.59
2018-11-12T03:57:50.718Z,1008.58
2018-11-12T03:58:50.804Z,1008.54
2018-11-12T03:59:50.782Z,1008.50
2018-11-12T04:00:51.121Z,1008.39
2018-11-12T04:01:50.848Z,1008.42
2018-11-12T04:02:50.888Z,1008.44
2018-11-12T04:03:50.965Z,1008.41
2018-11-12T04:04:50.949Z,1008.44
2018-11-12T04:05:50.986Z,1008.45
2018-11-12T04:06:51.024Z,1008.46
2018-11-12T04:07:51.352Z,1008.54
2018-11-12T04:08:51.131Z,1008.55
2018-11-12T04:09:51.165Z,1008.53
2018-11-12T04:10:51.145Z,1008.61
2018-11-12T04:11:51.187Z,1008.61
2018-11-12T04:12:51.262Z,1008.65
2018-11-12T04:13:51.251Z,1008.68
2018-11-12T04:14:51.579Z,1008.73
2018-11-12T04:15:51.425Z,1008.69
2018-11-12T04:16:51.398Z,1008.63
2018-11-12T04:17:51.379Z,1008.52
2018-11-12T04:18:51.410Z,1008.40
2018-11-12T04:19:51.495Z,1008.34
2018-11-12T04:20:51.530Z,1008.46
2018-11-12T04:21:51.809Z,1008.51
2018-11-12T04:22:51.543Z,1008.60
2018-11-12T04:23:51.677Z,1008.59
2018-11-12T04:24:51.658Z,1008.57
2018-11-12T04:26:51.730Z,1008.55
2018-11-12T04:27:51.709Z,1008.44
2018-11-12T04:28:52.091Z,1008.33
2018-11-12T04:29:51.775Z,1008.23
2018-11-12T04:30:51.861Z,1008.24
2018-11-12T04:31:51.843Z,1008.28
2018-11-12T04:33:51.906Z,1008.31
2018-11-12T04:34:51.938Z,1008.38
2018-11-12T04:35:52.272Z,1008.42
2018-11-12T04:36:52.058Z,1008.51
2018-11-12T04:37:52.045Z,1008.52
2018-11-12T04:38:52.075Z,1008.55
2018-11-12T04:39:52.108Z,1008.46
2018-11-12T04:40:52.198Z,1008.44
2018-11-12T04:41:52.229Z,1008.46
2018-11-12T04:42:52.603Z,1008.41
2018-11-12T04:43:52.243Z,1008.38
2018-11-12T04:44:52.322Z,1008.32
2018-11-12T04:47:52.426Z,1008.33
2018-11-12T04:48:52.558Z,1008.36
2018-11-12T04:49:52.736Z,1008.35
2018-11-12T04:50:52.470Z,1008.38
2018-11-12T04:51:52.503Z,1008.37
2018-11-12T04:52:52.583Z,1008.37
2018-11-12T04:53:52.718Z,1008.38
2018-11-12T04:54:52.598Z,1008.40
2018-11-12T04:55:52.685Z,1008.38
2018-11-12T04:56:52.966Z,1008.38
2018-11-12T04:57:52.702Z,1008.30
2018-11-12T04:58:52.781Z,1008.30
2018-11-12T04:59:52.873Z,1008.32
2018-11-12T05:00:52.849Z,1008.34
2018-11-12T05:01:52.884Z,1008.34
2018-11-12T05:02:52.913Z,1008.30
2018-11-12T05:03:53.195Z,1008.33
2018-11-12T05:04:53.014Z,1008.32
2018-11-12T05:05:53.717Z,1008.34
2018-11-12T05:06:52.997Z,1008.31
2018-11-12T05:07:53.126Z,1008.31
2018-11-12T05:08:53.124Z,1008.34
2018-11-12T05:10:53.480Z,1008.27
2018-11-12T05:11:53.165Z,1008.25
2018-11-12T05:12:53.255Z,1008.24
2018-11-12T05:13:53.232Z,1008.29
2018-11-12T05:14:53.310Z,1008.27
2018-11-12T05:15:53.293Z,1008.27
2018-11-12T05:17:53.672Z,1008.34
2018-11-12T05:18:53.445Z,1008.38
2018-11-12T05:19:53.480Z,1008.45
2018-11-12T05:20:53.462Z,1008.50
2018-11-12T05:21:53.498Z,1008.51
2018-11-12T05:22:53.687Z,1008.47
2018-11-12T05:23:53.861Z,1008.47
2018-11-12T05:24:53.640Z,1008.45
2018-11-12T05:25:53.623Z,1008.38
2018-11-12T05:26:53.660Z,1008.38
2018-11-12T05:27:53.689Z,1008.39
2018-11-12T05:28:53.722Z,1008.38
2018-11-12T05:29:54.161Z,1008.36
2018-11-12T05:30:53.788Z,1008.31
2018-11-12T05:31:53.822Z,1008.24
2018-11-12T05:32:53.906Z,1008.18
2018-11-12T05:33:53.938Z,1008.15
2018-11-12T05:34:53.923Z,1008.19
2018-11-12T05:35:54.253Z,1008.18
2018-11-12T05:36:54.174Z,1008.19
2018-11-12T05:37:54.100Z,1008.17
2018-11-12T05:39:54.139Z,1008.22
2018-11-12T05:40:54.272Z,1008.28
2018-11-12T05:41:54.153Z,1008.29
2018-11-12T05:42:54.482Z,1008.27
2018-11-12T05:43:54.268Z,1008.31
2018-11-12T05:45:54.284Z,1008.26
2018-11-12T05:46:54.366Z,1008.26
2018-11-12T05:47:54.351Z,1008.24
2018-11-12T05:48:54.491Z,1008.26
2018-11-12T05:49:54.721Z,1008.23
2018-11-12T05:50:54.500Z,1008.27
2018-11-12T05:51:54.481Z,1008.29
2018-11-12T05:52:55.214Z,1008.25
2018-11-12T05:53:54.547Z,1008.26
2018-11-12T05:54:54.580Z,1008.29
2018-11-12T05:55:54.663Z,1008.29
2018-11-12T05:56:54.995Z,1008.28
2018-11-12T05:57:54.681Z,1008.31
2018-11-12T05:58:54.760Z,1008.28
2018-11-12T06:00:54.828Z,1008.27
2018-11-12T06:01:54.861Z,1008.24
2018-11-12T06:02:54.898Z,1008.24
2018-11-12T06:03:55.176Z,1008.22
2018-11-12T06:04:55.030Z,1008.18
2018-11-12T06:05:54.942Z,1008.20
2018-11-12T06:06:54.973Z,1008.14
2018-11-12T06:07:55.064Z,1008.13
2018-11-12T06:09:55.126Z,1008.09
2018-11-12T06:10:55.470Z,1008.09
2018-11-12T06:11:55.191Z,1008.12
2018-11-12T06:13:55.257Z,1008.20
2018-11-12T06:14:55.338Z,1008.19
2018-11-12T06:15:55.277Z,1008.19
2018-11-12T06:17:55.347Z,1008.21
2018-11-12T06:18:55.722Z,1008.21
2018-11-12T06:19:55.528Z,1008.27
2018-11-12T06:20:55.492Z,1008.30
2018-11-12T06:21:55.526Z,1008.38
2018-11-12T06:22:55.553Z,1008.36
2018-11-12T06:23:55.897Z,1008.33
2018-11-12T06:24:55.621Z,1008.35
2018-11-12T06:25:55.957Z,1008.31
2018-11-12T06:26:55.636Z,1008.28
2018-11-12T06:27:55.717Z,1008.28
2018-11-12T06:28:55.707Z,1008.28
2018-11-12T06:29:55.734Z,1008.31
2018-11-12T06:30:55.776Z,1008.30
2018-11-12T06:31:55.800Z,1008.24
2018-11-12T06:32:56.134Z,1008.22
2018-11-12T06:33:55.919Z,1008.17
2018-11-12T06:34:55.902Z,1008.15
2018-11-12T06:35:55.937Z,1008.15
2018-11-12T06:36:56.099Z,1008.14
2018-11-12T06:37:56.003Z,1008.21
2018-11-12T06:38:56.087Z,1008.22
2018-11-12T06:40:56.399Z,1008.22
2018-11-12T06:41:56.133Z,1008.22
2018-11-12T06:42:56.275Z,1008.28
2018-11-12T06:43:56.253Z,1008.25
2018-11-12T06:44:56.279Z,1008.23
2018-11-12T06:46:56.321Z,1008.27
2018-11-12T06:47:56.679Z,1008.31
2018-11-12T06:48:56.464Z,1008.30
2018-11-12T06:49:56.447Z,1008.21
2018-11-12T06:50:56.426Z,1008.14
2018-11-12T06:51:56.509Z,1008.12
2018-11-12T06:52:56.582Z,1008.13
2018-11-12T06:53:56.594Z,1008.17
2018-11-12T06:54:56.869Z,1008.21
2018-11-12T06:55:56.654Z,1008.24
2018-11-12T06:56:56.678Z,1008.24
2018-11-12T06:57:56.716Z,1008.28
2018-11-12T06:58:56.744Z,1008.29
2018-11-12T06:59:56.784Z,1008.28
2018-11-12T07:00:56.869Z,1008.27
2018-11-12T07:01:57.089Z,1008.15
2018-11-12T07:02:56.876Z,1008.01
2018-11-12T07:03:56.856Z,1008.04
2018-11-12T07:04:56.888Z,1008.07
2018-11-12T07:05:56.972Z,1008.09
2018-11-12T07:06:57.065Z,1008.13
2018-11-12T07:07:56.989Z,1008.10
2018-11-12T07:09:57.356Z,1008.11
2018-11-12T07:10:57.136Z,1008.11
2018-11-12T07:11:57.123Z,1008.14
2018-11-12T07:13:57.286Z,1008.09
2018-11-12T07:14:57.226Z,1008.02
2018-11-12T07:15:57.301Z,1007.95
2018-11-12T07:16:57.335Z,1007.89
2018-11-12T07:17:57.317Z,1007.89
2018-11-12T07:18:57.355Z,1007.94
2018-11-12T07:19:57.433Z,1007.94
2018-11-12T07:20:57.468Z,1007.97
2018-11-12T07:21:57.508Z,1007.99
2018-11-12T07:23:57.817Z,1007.91
2018-11-12T07:24:57.629Z,1007.86
2018-11-12T07:25:57.580Z,1007.83
2018-11-12T07:26:57.675Z,1007.80
2018-11-12T07:27:57.655Z,1007.79
2018-11-12T07:29:57.715Z,1007.76
2018-11-12T07:30:58.205Z,1007.76
2018-11-12T07:31:57.843Z,1007.70
2018-11-12T07:32:58.186Z,1007.75
2018-11-12T07:33:57.859Z,1007.76
2018-11-12T07:34:57.885Z,1007.80
2018-11-12T07:35:57.963Z,1007.77
2018-11-12T07:36:57.999Z,1007.76
2018-11-12T07:37:58.027Z,1007.82
2018-11-12T07:39:58.043Z,1007.77
2018-11-12T07:40:58.126Z,1007.77
2018-11-12T07:41:58.175Z,1007.78
2018-11-12T07:42:58.194Z,1007.74
2018-11-12T07:43:58.179Z,1007.67
2018-11-12T07:44:58.261Z,1007.70
2018-11-12T07:45:58.241Z,1007.70
2018-11-12T07:47:58.380Z,1007.80
2018-11-12T07:48:58.341Z,1007.88
2018-11-12T07:49:58.766Z,1007.92
2018-11-12T07:50:58.414Z,1007.93
2018-11-12T07:51:58.448Z,1007.94
2018-11-12T07:52:58.524Z,1007.93
2018-11-12T07:53:58.555Z,1007.93
2018-11-12T07:54:58.538Z,1007.93
2018-11-12T07:55:58.926Z,1007.88
2018-11-12T07:56:58.664Z,1007.87
2018-11-12T07:57:58.650Z,1007.88
2018-11-12T07:58:58.722Z,1007.90
2018-11-12T07:59:58.824Z,1007.94
2018-11-12T08:00:58.793Z,1007.95
2018-11-12T08:01:59.070Z,1007.94
2018-11-12T08:02:58.865Z,1007.86
2018-11-12T08:03:58.896Z,1007.81
2018-11-12T08:04:58.871Z,1007.82
2018-11-12T08:05:58.921Z,1007.83
2018-11-12T08:06:58.947Z,1007.80
2018-11-12T08:07:58.979Z,1007.85
2018-11-12T08:08:59.326Z,1007.79
2018-11-12T08:09:59.089Z,1007.70
2018-11-12T08:10:59.070Z,1007.66
2018-11-12T08:11:59.238Z,1007.62
2018-11-12T08:12:59.238Z,1007.62
2018-11-12T08:13:59.293Z,1007.56
2018-11-12T08:14:59.301Z,1007.55
2018-11-12T08:15:59.536Z,1007.50
2018-11-12T08:16:59.366Z,1007.45
2018-11-12T08:17:59.299Z,1007.44
2018-11-12T08:18:59.393Z,1007.39
2018-11-12T08:19:59.371Z,1007.37
2018-11-12T08:20:59.451Z,1007.35
2018-11-12T08:21:59.483Z,1007.36
2018-11-12T08:22:59.865Z,1007.38
2018-11-12T08:23:59.623Z,1007.39
2018-11-12T08:24:59.583Z,1007.37
2018-11-12T08:26:00.019Z,1007.33
2018-11-12T08:26:59.604Z,1007.25
2018-11-12T08:27:59.630Z,1007.23
2018-11-12T08:28:59.736Z,1007.16
2018-11-12T08:30:00.215Z,1007.16
2018-11-12T08:30:59.736Z,1007.16
2018-11-12T08:32:59.891Z,1007.30
2018-11-12T08:33:59.880Z,1007.30
2018-11-12T08:35:00.565Z,1007.31
2018-11-12T08:35:59.974Z,1007.27
2018-11-12T08:37:00.257Z,1007.25
2018-11-12T08:37:59.968Z,1007.26
2018-11-12T08:39:00.015Z,1007.28
2018-11-12T08:40:00.156Z,1007.28
2018-11-12T08:41:00.194Z,1007.29
2018-11-12T08:42:00.148Z,1007.27
2018-11-12T08:43:00.183Z,1007.27
2018-11-12T08:44:00.461Z,1007.27
2018-11-12T08:45:00.246Z,1007.28
2018-11-12T08:46:00.332Z,1007.32
2018-11-12T08:47:00.266Z,1007.34
2018-11-12T08:48:00.295Z,1007.36
2018-11-12T08:49:00.411Z,1007.39
2018-11-12T08:50:00.520Z,1007.41
2018-11-12T08:51:00.692Z,1007.41
2018-11-12T08:52:00.530Z,1007.40
2018-11-12T08:53:00.460Z,1007.38
2018-11-12T08:54:00.494Z,1007.34
2018-11-12T08:55:00.612Z,1007.31
2018-11-12T08:56:00.560Z,1007.30
2018-11-12T08:57:00.644Z,1007.35
2018-11-12T08:58:00.980Z,1007.33
2018-11-12T08:59:11.517Z,1007.32
2018-11-12T09:00:00.697Z,1007.32
2018-11-12T09:01:00.727Z,1007.34
2018-11-12T09:02:00.809Z,1007.34
2018-11-12T09:03:01.321Z,1007.33
2018-11-12T09:04:00.875Z,1007.35
2018-11-12T09:05:01.161Z,1007.37
2018-11-12T09:06:00.950Z,1007.33
2018-11-12T09:07:00.928Z,1007.30
2018-11-12T09:08:00.959Z,1007.34
2018-11-12T09:09:01.041Z,1007.31
2018-11-12T09:10:01.090Z,1007.34
2018-11-12T09:11:01.058Z,1007.36
2018-11-12T09:12:01.393Z,1007.39
2018-11-12T09:13:01.182Z,1007.42
2018-11-12T09:14:01.490Z,1007.41
2018-11-12T09:15:01.189Z,1007.44
2018-11-12T09:16:01.272Z,1007.40
2018-11-12T09:17:01.308Z,1007.43
2018-11-12T09:18:01.341Z,1007.42
2018-11-12T09:19:01.628Z,1007.44
2018-11-12T09:20:01.358Z,1007.41
2018-11-12T09:21:01.448Z,1007.45
2018-11-12T09:22:01.495Z,1007.42
2018-11-12T09:23:01.459Z,1007.40
2018-11-12T09:24:01.593Z,1007.35
2018-11-12T09:25:01.525Z,1007.32
2018-11-12T09:26:01.855Z,1007.29
2018-11-12T09:27:01.600Z,1007.31
2018-11-12T09:28:01.638Z,1007.28
2018-11-12T09:29:01.710Z,1007.30
2018-11-12T09:30:01.750Z,1007.27
2018-11-12T09:31:03.488Z,1007.25
2018-11-12T09:32:01.807Z,1007.26
2018-11-12T09:33:02.091Z,1007.29
2018-11-12T09:34:01.823Z,1007.33
2018-11-12T09:35:01.861Z,1007.33
2018-11-12T09:36:01.944Z,1007.35
2018-11-12T09:37:01.989Z,1007.35
2018-11-12T09:38:01.957Z,1007.34
2018-11-12T09:39:02.294Z,1007.37
2018-11-12T09:40:02.201Z,1007.38
2018-11-12T09:41:02.109Z,1007.40
2018-11-12T09:42:02.140Z,1007.44
2018-11-12T09:43:02.165Z,1007.44
2018-11-12T09:44:02.160Z,1007.48
2018-11-12T09:45:02.542Z,1007.46
2018-11-12T09:46:02.258Z,1007.48
2018-11-12T09:47:02.308Z,1007.51
2018-11-12T09:48:02.292Z,1007.42
2018-11-12T09:49:02.344Z,1007.40
2018-11-12T09:50:02.361Z,1007.42
2018-11-12T09:51:02.694Z,1007.41
2018-11-12T09:52:02.476Z,1007.40
2018-11-12T09:53:02.510Z,1007.38
2018-11-12T09:54:02.510Z,1007.36
2018-11-12T09:55:02.529Z,1007.36
2018-11-12T09:56:02.560Z,1007.33
2018-11-12T09:57:02.646Z,1007.34
2018-11-12T09:58:02.977Z,1007.31
2018-11-12T09:59:02.712Z,1007.30
2018-11-12T10:00:02.757Z,1007.32
2018-11-12T10:01:03.281Z,1007.33
2018-11-12T10:02:03.390Z,1007.30
2018-11-12T10:03:03.662Z,1007.30
2018-11-12T10:04:03.818Z,1007.33
2018-11-12T10:05:04.768Z,1007.36
2018-11-12T10:06:04.151Z,1007.34
2018-11-12T10:07:04.984Z,1007.34
2018-11-12T10:08:05.193Z,1007.32
2018-11-12T10:09:06.249Z,1007.38
2018-11-12T10:10:05.767Z,1007.39
2018-11-12T10:11:05.432Z,1007.41
2018-11-12T10:12:05.357Z,1007.42
2018-11-12T10:13:04.866Z,1007.41
2018-11-12T10:14:05.657Z,1007.47
2018-11-12T10:15:06.541Z,1007.48
2018-11-12T10:16:06.450Z,1007.52
2018-11-12T10:17:05.911Z,1007.48
2018-11-12T10:18:06.209Z,1007.53
2018-11-12T10:19:03.667Z,1007.56
2018-11-12T10:20:03.421Z,1007.55
2018-11-12T10:21:03.411Z,1007.59
2018-11-12T10:22:03.484Z,1007.57
2018-11-12T10:23:03.470Z,1007.56
2018-11-12T10:24:03.501Z,1007.56
2018-11-12T10:25:03.584Z,1007.56
2018-11-12T10:26:03.922Z,1007.55
2018-11-12T10:27:03.667Z,1007.54
2018-11-12T10:28:03.635Z,1007.47
2018-11-12T10:29:03.675Z,1007.44
2018-11-12T10:30:03.714Z,1007.41
2018-11-12T10:31:03.738Z,1007.42
2018-11-12T10:32:03.823Z,1007.43
2018-11-12T10:33:04.108Z,1007.43
2018-11-12T10:34:03.925Z,1007.41
2018-11-12T10:35:03.924Z,1007.43
2018-11-12T10:36:03.914Z,1007.42
2018-11-12T10:37:03.998Z,1007.39
2018-11-12T10:38:04.032Z,1007.43
2018-11-12T10:39:04.011Z,1007.42
2018-11-12T10:40:04.363Z,1007.44
2018-11-12T10:41:04.112Z,1007.39
2018-11-12T10:42:04.110Z,1007.40
2018-11-12T10:43:04.198Z,1007.31
2018-11-12T10:44:04.179Z,1007.34
2018-11-12T10:45:04.265Z,1007.33
2018-11-12T10:46:04.302Z,1007.33
2018-11-12T10:47:04.289Z,1007.33
2018-11-12T10:48:04.532Z,1007.32
2018-11-12T10:49:04.349Z,1007.44
2018-11-12T10:50:04.382Z,1007.49
2018-11-12T10:51:05.251Z,1007.49
2018-11-12T10:52:04.467Z,1007.45
2018-11-12T10:53:04.850Z,1007.47
2018-11-12T10:54:04.754Z,1007.40
2018-11-12T10:55:05.538Z,1007.41
2018-11-12T10:56:04.701Z,1007.41
2018-11-12T10:57:04.689Z,1007.46
2018-11-12T10:58:04.680Z,1007.46
2018-11-12T10:59:04.990Z,1007.49
2018-11-12T11:00:04.727Z,1007.47
2018-11-12T11:01:04.804Z,1007.49
2018-11-12T11:02:04.786Z,1007.56
2018-11-12T11:03:04.876Z,1007.53
2018-11-12T11:04:04.857Z,1007.60
2018-11-12T11:05:05.191Z,1007.63
2018-11-12T11:06:04.980Z,1007.65
2018-11-12T11:07:04.961Z,1007.66
2018-11-12T11:08:05.040Z,1007.69
2018-11-12T11:09:05.077Z,1007.68
2018-11-12T11:10:05.058Z,1007.70
2018-11-12T11:11:05.450Z,1007.66
2018-11-12T11:12:05.130Z,1007.67
2018-11-12T11:13:05.210Z,1007.68
2018-11-12T11:14:05.193Z,1007.65
2018-11-12T11:15:05.435Z,1007.64
2018-11-12T11:16:05.313Z,1007.60
2018-11-12T11:17:05.348Z,1007.58
2018-11-12T11:18:05.630Z,1007.62
2018-11-12T11:19:05.368Z,1007.62
2018-11-12T11:20:05.449Z,1007.58
2018-11-12T11:21:05.537Z,1007.60
2018-11-12T11:22:05.520Z,1007.63
2018-11-12T11:23:05.504Z,1007.59
2018-11-12T11:24:05.535Z,1007.63
2018-11-12T11:25:05.919Z,1007.57
2018-11-12T11:26:05.652Z,1007.53
2018-11-12T11:27:05.685Z,1007.50
2018-11-12T11:28:05.670Z,1007.55
2018-11-12T11:29:05.753Z,1007.53
2018-11-12T11:30:05.800Z,1007.53
2018-11-12T11:32:05.856Z,1007.49
2018-11-12T11:33:06.211Z,1007.50
2018-11-12T11:34:05.878Z,1007.48
2018-11-12T11:35:05.911Z,1007.54
2018-11-12T11:36:05.952Z,1007.51
2018-11-12T11:37:06.027Z,1007.57
2018-11-12T11:38:06.061Z,1007.51
2018-11-12T11:39:06.049Z,1007.48
2018-11-12T11:40:06.446Z,1007.52
2018-11-12T11:42:06.203Z,1007.47
2018-11-12T11:43:06.238Z,1007.40
2018-11-12T11:44:06.219Z,1007.33
2018-11-12T11:45:06.316Z,1007.35
2018-11-12T11:46:06.316Z,1007.38
2018-11-12T11:47:06.693Z,1007.37
2018-11-12T11:48:06.394Z,1007.42
2018-11-12T11:49:06.393Z,1007.48
2018-11-12T11:51:06.459Z,1007.54
2018-11-12T11:53:06.535Z,1007.48
2018-11-12T11:54:06.860Z,1007.44
2018-11-12T11:55:06.594Z,1007.42
2018-11-12T11:56:06.685Z,1007.47
2018-11-12T11:57:06.766Z,1007.60
2018-11-12T11:58:06.698Z,1007.61
2018-11-12T11:59:06.788Z,1007.65
2018-11-12T12:00:06.769Z,1007.69
2018-11-12T12:01:06.865Z,1007.69
2018-11-12T12:02:06.851Z,1007.70
2018-11-12T12:04:06.960Z,1007.74
2018-11-12T12:05:07.016Z,1007.76
2018-11-12T12:06:07.002Z,1007.75
2018-11-12T12:07:07.311Z,1007.69
2018-11-12T12:08:07.048Z,1007.72
2018-11-12T12:09:07.182Z,1007.74
2018-11-12T12:10:07.114Z,1007.65
2018-11-12T12:12:07.185Z,1007.64
2018-11-12T12:13:07.218Z,1007.69
2018-11-12T12:14:07.298Z,1007.71
2018-11-12T12:15:07.292Z,1007.71
2018-11-12T12:16:07.380Z,1007.71
2018-11-12T12:17:07.411Z,1007.66
2018-11-12T12:18:07.442Z,1007.60
2018-11-12T12:19:07.425Z,1007.61
2018-11-12T12:20:07.466Z,1007.68
2018-11-12T12:21:07.595Z,1007.69
2018-11-12T12:22:07.530Z,1007.67
2018-11-12T12:23:07.580Z,1007.68
2018-11-12T12:24:08.083Z,1007.68
2018-11-12T12:25:07.757Z,1007.67
2018-11-12T12:26:07.962Z,1007.79
2018-11-12T12:27:07.772Z,1007.74
2018-11-12T12:28:07.786Z,1007.68
2018-11-12T12:29:07.818Z,1007.77
2018-11-12T12:30:07.801Z,1007.75
2018-11-12T12:32:07.921Z,1007.85
2018-11-12T12:33:08.226Z,1007.86
2018-11-12T12:34:08.018Z,1007.85
2018-11-12T12:35:08.029Z,1007.83
2018-11-12T12:36:08.144Z,1007.84
2018-11-12T12:37:08.093Z,1007.82
2018-11-12T12:38:08.082Z,1007.78
2018-11-12T12:39:08.412Z,1007.77
2018-11-12T12:40:08.207Z,1007.79
2018-11-12T12:41:08.234Z,1007.82
2018-11-12T12:42:08.264Z,1007.85
2018-11-12T12:43:08.261Z,1007.87
2018-11-12T12:44:08.349Z,1007.90
2018-11-12T12:45:08.447Z,1007.94
2018-11-12T12:46:08.353Z,1007.98
2018-11-12T12:47:08.453Z,1007.97